Time;durP1;ratioP1;P1;durP2;ratioP2;P2;SDS_P1;SDS_P2;PMS_P1;PMS_P2;Temp;Humidity;BMP_temperature;BMP_pressure;BME280_temperature;BME280_humidity;BME280_pressure;Samples;Min_cycle;Max_cycle;Signal;HPM_P1;HPM_P2
2021/01/05 00:01:10;;;;;;;70.62;25.62;;;;;;;1.04;91.46;100026.77;2117904;82;21148;-66
2021/01/05 00:04:12;;;;;;;67.75;26.37;;;;;;;1.03;91.49;100024.64;2115716;82;21133;-67
2021/01/05 00:07:14;;;;;;;63.63;24.23;;;;;;;1.03;91.49;100023.81;2123391;82;21890;-67
2021/01/05 00:10:16;;;;;;;59.83;22.60;;;;;;;1.06;91.51;100020.98;2114606;82;21125;-66
2021/01/05 00:13:18;;;;;;;61.77;23.98;;;;;;;1.04;91.56;100015.02;2114811;82;21236;-67
2021/01/05 00:16:19;;;;;;;65.75;26.82;;;;;;;1.02;91.57;100003.86;2116757;82;21170;-66
2021/01/05 00:19:22;;;;;;;66.50;26.80;;;;;;;1.02;91.57;100006.47;2118326;82;21552;-68
2021/01/05 00:22:24;;;;;;;69.72;27.95;;;;;;;1.04;91.60;100001.95;2114026;82;21129;-66
2021/01/05 00:25:27;;;;;;;70.32;26.95;;;;;;;1.04;91.61;100008.48;2118030;82;21597;-71
2021/01/05 00:28:28;;;;;;;64.05;23.38;;;;;;;1.03;91.65;100011.57;2116216;82;21105;-69
2021/01/05 00:31:30;;;;;;;69.97;27.60;;;;;;;1.04;91.75;100017.18;2113542;82;21499;-67
2021/01/05 00:34:31;;;;;;;71.37;27.58;;;;;;;1.03;91.73;100020.72;2118272;82;21137;-72
2021/01/05 00:37:33;;;;;;;66.97;28.05;;;;;;;1.04;91.73;100018.94;2118291;82;21139;-67
2021/01/05 00:40:35;;;;;;;75.87;28.30;;;;;;;1.05;91.71;100020.63;2119983;82;21098;-66
2021/01/05 00:43:38;;;;;;;71.12;26.42;;;;;;;1.05;91.71;100015.39;2112578;82;21212;-66
2021/01/05 00:46:39;;;;;;;64.95;26.25;;;;;;;1.03;91.78;100017.27;2116711;82;21176;-66
2021/01/05 00:49:41;;;;;;;65.20;24.63;;;;;;;1.01;91.92;100018.67;2117775;82;21128;-70
2021/01/05 00:52:43;;;;;;;73.75;27.65;;;;;;;1.00;91.95;100008.34;2094313;83;21203;-67
2021/01/05 00:55:45;;;;;;;62.93;26.65;;;;;;;1.03;91.93;100015.49;2126560;82;22267;-66
2021/01/05 00:58:46;;;;;;;61.60;24.45;;;;;;;1.02;91.93;100012.52;2127631;82;22283;-67
2021/01/05 01:01:48;;;;;;;67.53;27.40;;;;;;;1.02;91.98;100018.23;2126256;82;21173;-68
2021/01/05 01:04:50;;;;;;;64.27;26.07;;;;;;;1.00;92.04;100020.11;2125728;82;21218;-68
2021/01/05 01:07:51;;;;;;;66.33;27.15;;;;;;;1.01;92.02;100017.37;2120963;82;21599;-66
2021/01/05 01:10:54;;;;;;;64.67;26.05;;;;;;;0.99;92.13;100008.00;2126176;82;21106;-66
2021/01/05 01:13:57;;;;;;;65.47;23.92;;;;;;;0.98;92.22;100014.14;2094914;82;21270;-72
2021/01/05 01:17:00;;;;;;;69.45;27.50;;;;;;;0.96;92.23;100008.19;2127754;82;21516;-69
2021/01/05 01:20:08;;;;;;;59.65;22.15;;;;;;;0.98;92.23;100006.31;2124028;82;21132;-67
2021/01/05 01:23:10;;;;;;;62.08;23.67;;;;;;;0.99;92.29;99998.38;2123278;82;21196;-67
2021/01/05 01:26:13;;;;;;;65.57;23.40;;;;;;;0.95;92.33;100001.30;2127491;82;21139;-67
2021/01/05 01:29:24;;;;;;;61.08;24.95;;;;;;;0.93;92.41;99994.03;2127483;82;21163;-67
2021/01/05 01:32:25;;;;;;;63.50;26.95;;;;;;;0.92;92.50;99992.38;2123119;82;21180;-67
2021/01/05 01:35:27;;;;;;;51.88;22.02;;;;;;;0.92;92.41;99999.73;2121893;82;21207;-66
2021/01/05 01:38:29;;;;;;;60.50;23.85;;;;;;;0.91;92.40;99998.55;2124202;82;21188;-67
2021/01/05 01:41:33;;;;;;;62.00;25.70;;;;;;;0.89;92.37;100003.39;2127155;82;21129;-67
2021/01/05 01:44:39;;;;;;;58.30;22.37;;;;;;;0.89;92.36;100000.78;2123946;82;21235;-67
2021/01/05 01:47:43;;;;;;;60.12;23.70;;;;;;;0.91;92.35;99999.86;2122632;82;21132;-66
2021/01/05 01:50:46;;;;;;;66.77;26.50;;;;;;;0.92;92.32;99992.38;2096835;83;21121;-66
2021/01/05 01:54:05;;;;;;;61.73;25.10;;;;;;;0.91;92.32;99998.55;2127033;82;21583;-72
2021/01/05 01:57:35;;;;;;;58.68;22.32;;;;;;;0.94;92.37;99999.64;2119974;82;21251;-71
2021/01/05 02:00:59;;;;;;;52.08;24.25;;;;;;;0.95;92.35;99998.21;2121061;82;21186;-67
2021/01/05 02:04:29;;;;;;;59.93;24.90;;;;;;;0.93;92.28;99998.81;2116573;82;21485;-67
2021/01/05 02:07:36;;;;;;;60.52;24.07;;;;;;;0.94;92.27;100002.25;2116067;82;21105;-68
2021/01/05 02:11:05;;;;;;;54.35;24.12;;;;;;;0.95;92.23;99994.29;2117568;82;21121;-68
2021/01/05 02:14:31;;;;;;;52.17;22.07;;;;;;;0.95;92.15;99987.76;2105737;82;21217;-72
2021/01/05 02:18:01;;;;;;;64.10;24.72;;;;;;;0.98;92.17;99978.87;2092410;83;21220;-68
2021/01/05 02:21:27;;;;;;;64.67;26.65;;;;;;;0.99;92.14;99976.64;2117290;82;21173;-68
2021/01/05 02:24:52;;;;;;;58.23;23.73;;;;;;;1.02;92.18;99969.89;2120663;82;21153;-67
2021/01/05 02:28:04;;;;;;;58.33;25.32;;;;;;;1.07;92.06;99972.98;2122622;82;21557;-67
2021/01/05 02:31:38;;;;;;;64.58;26.40;;;;;;;1.05;91.98;99963.97;2097008;83;21318;-67
2021/01/05 02:35:15;;;;;;;58.90;24.50;;;;;;;1.06;91.99;99954.34;2114228;82;21576;-72
2021/01/05 02:39:29;;;;;;;62.40;25.85;;;;;;;1.07;92.01;99946.41;2113024;82;21141;-71
2021/01/05 02:43:31;;;;;;;67.78;26.93;;;;;;;1.08;92.02;99948.54;2117829;82;21145;-67
2021/01/05 02:46:59;;;;;;;66.40;26.15;;;;;;;1.09;92.02;99947.59;2115296;82;21193;-68
2021/01/05 02:50:53;;;;;;;66.25;27.22;;;;;;;1.13;92.01;99947.74;2116765;82;21168;-68
2021/01/05 02:54:52;;;;;;;66.37;27.15;;;;;;;1.16;91.98;99946.21;2115868;82;21749;-66
2021/01/05 02:59:08;;;;;;;69.58;26.73;;;;;;;1.18;91.94;99930.41;2094248;83;21346;-66
2021/01/05 03:02:50;;;;;;;71.20;26.62;;;;;;;1.20;91.91;99930.66;2092989;83;21101;-68
2021/01/05 03:06:35;;;;;;;68.70;26.35;;;;;;;1.19;91.87;99930.78;2090933;83;21117;-67
2021/01/05 03:10:22;;;;;;;69.82;27.95;;;;;;;1.16;91.91;99927.92;2092455;83;21260;-67
2021/01/05 03:14:05;;;;;;;75.97;28.42;;;;;;;1.17;91.90;99929.58;2092724;83;21120;-67
2021/01/05 03:17:22;;;;;;;77.32;31.30;;;;;;;1.17;91.94;99928.27;2058381;84;21168;-68
2021/01/05 03:20:59;;;;;;;83.27;31.93;;;;;;;1.17;91.93;99928.27;2094845;83;21185;-67
2021/01/05 03:24:18;;;;;;;72.82;30.25;;;;;;;1.17;92.07;99926.13;1976761;87;21218;-69
2021/01/05 03:27:39;;;;;;;70.05;29.72;;;;;;;1.16;92.08;99917.47;2079938;84;21165;-67
2021/01/05 03:31:25;;;;;;;71.35;30.32;;;;;;;1.17;92.11;99924.34;2080497;84;21165;-67
2021/01/05 03:34:45;;;;;;;66.90;28.42;;;;;;;1.17;92.08;99923.04;2083644;84;21250;-67
2021/01/05 03:38:04;;;;;;;56.35;25.17;;;;;;;1.18;92.15;99913.41;2082429;84;21569;-67
2021/01/05 03:41:25;;;;;;;63.17;26.15;;;;;;;1.20;92.15;99915.45;2083265;84;21108;-72
2021/01/05 03:44:45;;;;;;;52.13;24.87;;;;;;;1.19;92.07;99917.23;2081696;84;21297;-68
2021/01/05 03:48:06;;;;;;;51.02;22.62;;;;;;;1.20;92.03;99909.75;2083067;84;21145;-67
2021/01/05 03:51:26;;;;;;;52.62;22.70;;;;;;;1.20;92.00;99912.36;2081052;84;21268;-67
2021/01/05 06:07:16;;;;;;;50.63;24.50;;;;;;;1.04;92.09;99860.84;2119412;82;21630;-69
2021/01/05 06:10:18;;;;;;;47.27;22.10;;;;;;;1.06;92.06;99858.97;2113908;82;21147;-72
2021/01/05 06:13:20;;;;;;;53.17;24.87;;;;;;;1.09;92.05;99860.88;2120584;82;21164;-68
2021/01/05 06:16:21;;;;;;;50.17;25.35;;;;;;;1.11;92.00;99856.85;2115202;82;21164;-69
2021/01/05 06:19:23;;;;;;;47.15;24.10;;;;;;;1.14;91.96;99855.80;2114802;82;21187;-72
2021/01/05 06:22:24;;;;;;;52.58;24.35;;;;;;;1.14;91.91;99852.70;2121198;82;21143;-70
2021/01/05 06:25:26;;;;;;;50.28;25.80;;;;;;;1.12;91.86;99854.11;2114419;82;21103;-69
2021/01/05 06:28:28;;;;;;;50.15;24.10;;;;;;;1.14;91.84;99847.48;2123027;82;21161;-70
2021/01/05 06:31:29;;;;;;;50.00;26.40;;;;;;;1.17;91.81;99843.33;2119119;82;21130;-72
2021/01/05 06:34:30;;;;;;;53.28;24.85;;;;;;;1.19;91.78;99842.75;2118464;82;21149;-69
2021/01/05 06:37:32;;;;;;;47.25;24.32;;;;;;;1.19;91.72;99845.36;2113948;82;21487;-69
2021/01/05 06:40:33;;;;;;;51.92;26.75;;;;;;;1.19;91.65;99837.52;2095478;82;21734;-68
2021/01/05 06:43:35;;;;;;;53.55;25.70;;;;;;;1.20;91.60;99842.27;2119338;82;21209;-68
2021/01/05 06:46:36;;;;;;;51.83;25.52;;;;;;;1.19;91.54;99837.52;2116280;82;21153;-68
2021/01/05 06:49:38;;;;;;;53.10;26.20;;;;;;;1.17;91.53;99838.58;2116343;82;21196;-69
2021/01/05 06:52:39;;;;;;;50.75;27.25;;;;;;;1.14;91.50;99841.42;2120039;82;21518;-68
2021/01/05 06:55:41;;;;;;;66.47;33.33;;;;;;;1.14;91.52;99838.33;2117369;82;21149;-67
2021/01/05 06:58:44;;;;;;;66.50;32.42;;;;;;;1.14;91.50;99838.81;2117107;82;21223;-68
2021/01/05 07:01:56;;;;;;;45.80;23.57;;;;;;;1.17;91.55;99842.02;2112477;82;21117;-68
2021/01/05 07:04:57;;;;;;;46.63;24.75;;;;;;;1.17;91.55;99847.25;2118842;82;21145;-67
2021/01/05 07:07:59;;;;;;;51.58;24.50;;;;;;;1.16;91.48;99853.44;2115416;82;21130;-68
2021/01/05 07:11:00;;;;;;;55.00;27.48;;;;;;;1.17;91.49;99849.03;2083510;83;21162;-69
2021/01/05 07:14:02;;;;;;;46.85;24.80;;;;;;;1.20;91.50;99846.19;2086127;83;21683;-70
2021/01/05 07:17:04;;;;;;;51.20;25.65;;;;;;;1.24;91.52;99848.47;2084307;83;21213;-69
2021/01/05 07:20:09;;;;;;;49.15;25.30;;;;;;;1.20;91.42;99844.41;2083708;83;21103;-70
2021/01/05 07:23:10;;;;;;;48.90;24.23;;;;;;;1.16;91.40;99844.28;2083907;83;21135;-69
2021/01/05 07:26:12;;;;;;;43.90;23.90;;;;;;;1.13;91.42;99843.20;2086833;83;21079;-75
2021/01/05 07:29:19;;;;;;;37.47;20.50;;;;;;;1.12;91.42;99842.83;2084777;83;22133;-74
2021/01/05 07:32:21;;;;;;;42.83;21.68;;;;;;;1.09;91.47;99838.66;2081244;83;21215;-69
2021/01/05 07:35:22;;;;;;;43.65;22.80;;;;;;;1.09;91.43;99837.83;2085631;83;21151;-75
2021/01/05 07:38:23;;;;;;;36.50;20.35;;;;;;;1.08;91.44;99835.70;2082586;83;21178;-68
2021/01/05 07:41:25;;;;;;;39.23;21.95;;;;;;;1.08;91.49;99830.95;2088971;83;21645;-75
2021/01/05 07:44:26;;;;;;;43.90;22.58;;;;;;;1.06;91.45;99828.44;2085422;83;21128;-68
2021/01/05 07:47:35;;;;;;;38.80;20.90;;;;;;;1.08;91.53;99829.64;2085784;83;21126;-68
2021/01/05 07:50:36;;;;;;;37.15;20.95;;;;;;;1.09;91.48;99828.69;2085772;83;21142;-69
2021/01/05 07:53:38;;;;;;;36.42;19.77;;;;;;;1.09;91.48;99832.13;2084465;83;21135;-69
2021/01/05 07:56:43;;;;;;;36.70;20.85;;;;;;;1.10;91.47;99823.84;2086030;83;21163;-68
2021/01/05 07:59:45;;;;;;;40.12;21.40;;;;;;;1.07;91.48;99831.88;2086682;83;22355;-73
2021/01/05 08:02:46;;;;;;;39.67;21.02;;;;;;;1.04;91.46;99832.96;2083881;83;21147;-68
2021/01/05 08:05:48;;;;;;;39.83;20.82;;;;;;;1.03;91.47;99827.36;2065249;84;21201;-69
2021/01/05 08:08:49;;;;;;;36.13;20.17;;;;;;;1.04;91.51;99821.66;2090879;83;21121;-70
2021/01/05 08:11:51;;;;;;;35.63;18.37;;;;;;;1.06;91.53;99825.82;2119183;82;21167;-68
2021/01/05 08:14:53;;;;;;;36.50;20.05;;;;;;;1.05;91.47;99824.64;2122349;82;21478;-71
2021/01/05 08:17:54;;;;;;;30.52;17.77;;;;;;;1.06;91.44;99821.08;2121171;82;21133;-68
2021/01/05 08:20:55;;;;;;;30.52;17.05;;;;;;;1.08;91.44;99825.72;2118829;82;21196;-70
2021/01/05 08:23:56;;;;;;;32.63;18.60;;;;;;;1.09;91.38;99815.14;2124204;82;21423;-75
2021/01/05 08:26:58;;;;;;;30.88;17.73;;;;;;;1.09;91.37;99819.54;2120116;82;21717;-68
2021/01/05 08:29:59;;;;;;;35.20;17.62;;;;;;;1.10;91.38;99811.59;2118437;82;21102;-68
2021/01/05 08:33:07;;;;;;;27.62;16.15;;;;;;;1.11;91.34;99816.34;2120641;82;21152;-69
2021/01/05 08:36:10;;;;;;;29.05;17.92;;;;;;;1.11;91.33;99817.66;2119184;82;21194;-71
2021/01/05 08:39:13;;;;;;;32.88;17.82;;;;;;;1.10;91.25;99812.08;2120510;82;21178;-69
2021/01/05 08:42:14;;;;;;;34.83;17.35;;;;;;;1.12;91.28;99807.55;2122347;82;21203;-69
2021/01/05 08:45:16;;;;;;;35.68;19.05;;;;;;;1.11;91.21;99806.72;2119019;82;21185;-68
2021/01/05 08:48:18;;;;;;;32.45;17.65;;;;;;;1.10;91.23;99802.45;2123178;82;21110;-71
2021/01/05 08:51:21;;;;;;;37.78;19.25;;;;;;;1.09;91.23;99794.71;2120736;82;21436;-69
2021/01/05 08:54:23;;;;;;;35.43;19.55;;;;;;;1.09;91.23;99805.99;2120300;82;21137;-68
2021/01/05 08:57:24;;;;;;;35.88;18.45;;;;;;;1.10;91.22;99802.45;2114588;82;21135;-68
2021/01/05 09:00:26;;;;;;;32.75;18.10;;;;;;;1.12;91.22;99797.92;2120977;82;21197;-68
2021/01/05 09:03:27;;;;;;;27.27;16.15;;;;;;;1.15;91.17;99796.03;2120985;82;21181;-73
2021/01/05 09:06:29;;;;;;;27.93;16.80;;;;;;;1.12;91.12;99791.87;2114673;82;21123;-72
2021/01/05 09:09:30;;;;;;;33.10;19.00;;;;;;;1.10;91.09;99787.25;2116104;82;21200;-68
2021/01/05 09:12:35;;;;;;;26.73;16.32;;;;;;;1.13;91.10;99783.10;2117620;82;21139;-68
2021/01/05 09:15:36;;;;;;;30.85;17.25;;;;;;;1.14;91.13;99786.06;2117257;82;21545;-68
2021/01/05 09:18:38;;;;;;;34.95;19.52;;;;;;;1.12;91.11;99787.95;2119632;82;21240;-72
2021/01/05 09:21:39;;;;;;;30.25;16.95;;;;;;;1.12;91.03;99791.39;2118383;82;21197;-67
2021/01/05 09:24:41;;;;;;;31.37;16.48;;;;;;;1.10;91.00;99779.41;2119982;82;21160;-68
2021/01/05 09:27:42;;;;;;;26.17;15.35;;;;;;;1.08;91.02;99777.38;2119481;82;21081;-69
2021/01/05 09:30:47;;;;;;;25.92;15.25;;;;;;;1.06;90.97;99777.48;2114525;82;21606;-68
2021/01/05 09:33:49;;;;;;;25.55;15.72;;;;;;;1.06;91.03;99781.88;2118455;82;21078;-68
2021/01/05 09:36:51;;;;;;;23.20;13.55;;;;;;;1.10;91.05;99772.87;2119422;82;21141;-68
2021/01/05 09:39:52;;;;;;;23.18;13.78;;;;;;;1.08;90.96;99774.77;2117319;82;21147;-70
2021/01/05 09:42:54;;;;;;;25.60;13.50;;;;;;;1.07;90.91;99764.80;2118270;82;21223;-69
2021/01/05 09:45:56;;;;;;;22.42;13.05;;;;;;;1.05;90.93;99763.23;2114902;82;21631;-69
2021/01/05 09:48:57;;;;;;;20.52;12.90;;;;;;;1.05;90.94;99761.94;2117481;82;21184;-69
2021/01/05 09:52:00;;;;;;;22.73;12.23;;;;;;;1.05;90.90;99758.02;2121258;82;21115;-68
2021/01/05 09:55:04;;;;;;;21.65;11.00;;;;;;;1.04;90.85;99758.94;2116815;82;21121;-70
2021/01/05 09:58:06;;;;;;;19.07;11.83;;;;;;;1.06;90.89;99743.98;2117362;82;21134;-69
2021/01/05 10:01:08;;;;;;;21.00;11.57;;;;;;;1.09;90.88;99748.98;2118117;82;21141;-71
2021/01/05 10:04:09;;;;;;;19.90;12.35;;;;;;;1.08;90.79;99747.33;2119841;82;21621;-69
2021/01/05 10:07:11;;;;;;;20.00;12.00;;;;;;;1.08;90.74;99744.23;2116991;82;21168;-71
2021/01/05 10:10:23;;;;;;;22.65;12.65;;;;;;;1.10;90.81;99738.91;2123248;82;21216;-69
2021/01/05 10:13:26;;;;;;;20.37;11.83;;;;;;;1.08;90.75;99725.94;2128775;82;21127;-68
2021/01/05 10:16:27;;;;;;;23.12;12.60;;;;;;;1.05;90.71;99737.11;2134267;82;21510;-70
2021/01/05 10:19:29;;;;;;;20.72;12.45;;;;;;;1.03;90.71;99729.85;2127903;82;21465;-69
2021/01/05 10:22:30;;;;;;;26.05;13.70;;;;;;;1.02;90.71;99729.50;2131903;81;21118;-69
2021/01/05 10:25:32;;;;;;;19.32;11.55;;;;;;;1.01;90.73;99730.43;2129685;81;21151;-70
2021/01/05 10:28:34;;;;;;;25.20;14.35;;;;;;;1.00;90.68;99728.78;2128155;82;21147;-72
2021/01/05 10:31:42;;;;;;;28.92;16.32;;;;;;;0.99;90.58;99731.87;2132225;82;21193;-68
2021/01/05 10:34:44;;;;;;;26.02;13.98;;;;;;;0.99;90.56;99730.56;2125173;82;21180;-69
2021/01/05 10:37:46;;;;;;;20.05;12.07;;;;;;;0.97;90.44;99719.87;2132110;82;21113;-68
2021/01/05 10:40:52;;;;;;;24.20;14.45;;;;;;;0.97;90.36;99714.64;2132067;82;21175;-70
2021/01/05 10:43:54;;;;;;;25.12;15.13;;;;;;;0.94;90.34;99725.33;2122731;82;21156;-69
2021/01/05 10:47:05;;;;;;;26.65;14.13;;;;;;;0.94;90.29;99714.88;2127584;82;21094;-68
2021/01/05 10:50:11;;;;;;;25.40;14.53;;;;;;;0.88;90.13;99711.77;2129760;82;21123;-70
2021/01/05 10:53:12;;;;;;;26.62;15.25;;;;;;;0.82;90.10;99705.70;2127343;82;21172;-69
2021/01/05 10:56:15;;;;;;;28.67;16.25;;;;;;;0.76;89.99;99703.55;2129296;82;21293;-73
2021/01/05 10:59:17;;;;;;;28.07;16.50;;;;;;;0.71;89.97;99711.37;2131896;82;21534;-69
2021/01/05 11:02:18;;;;;;;32.38;18.45;;;;;;;0.66;89.93;99702.56;2129508;82;21154;-69
2021/01/05 11:05:20;;;;;;;25.15;15.55;;;;;;;0.66;89.99;99699.47;2127957;82;21667;-69
2021/01/05 11:08:21;;;;;;;31.70;17.52;;;;;;;0.62;89.89;99692.83;2127415;82;21170;-69
2021/01/05 11:11:23;;;;;;;27.90;16.52;;;;;;;0.60;89.89;99694.70;2087855;81;21539;-70
2021/01/05 11:14:24;;;;;;;25.23;15.03;;;;;;;0.59;89.87;99690.44;2069543;84;21264;-71
2021/01/05 11:17:26;;;;;;;23.70;14.40;;;;;;;0.56;89.85;99688.51;2070895;84;21128;-74
2021/01/05 11:20:27;;;;;;;26.70;13.08;;;;;;;0.56;89.95;99693.25;2074674;84;21167;-69
2021/01/05 11:23:29;;;;;;;21.07;13.40;;;;;;;0.54;89.92;99681.28;2071536;84;21110;-73
2021/01/05 11:26:36;;;;;;;22.22;14.10;;;;;;;0.51;89.85;99683.64;2074138;84;21755;-69
2021/01/05 11:29:37;;;;;;;21.80;12.73;;;;;;;0.46;89.75;99679.23;2073703;84;21674;-69
2021/01/05 11:32:39;;;;;;;22.45;14.00;;;;;;;0.42;89.69;99677.33;2076645;84;21200;-69
2021/01/05 11:35:44;;;;;;;18.00;12.05;;;;;;;0.41;89.70;99676.13;2081046;84;21144;-72
2021/01/05 11:38:46;;;;;;;21.55;13.10;;;;;;;0.43;89.73;99682.06;2072346;84;21199;-68
2021/01/05 11:41:47;;;;;;;25.45;12.88;;;;;;;0.40;89.65;99677.91;2072275;84;21219;-69
2021/01/05 11:44:50;;;;;;;22.52;13.98;;;;;;;0.36;89.56;99666.48;2071701;82;21374;-75
2021/01/05 11:47:52;;;;;;;23.98;14.85;;;;;;;0.30;89.54;99667.77;2070721;84;21627;-69
2021/01/05 11:51:53;;;;;;;22.80;14.60;;;;;;;0.27;89.57;99664.55;2072963;84;21108;-69
2021/01/05 11:55:57;;;;;;;26.02;14.87;;;;;;;0.24;89.57;99658.26;2072806;84;21174;-68
2021/01/05 12:00:07;;;;;;;20.25;12.73;;;;;;;0.17;89.55;99658.71;2075270;84;21138;-69
2021/01/05 12:04:13;;;;;;;20.30;12.30;;;;;;;0.16;89.62;99657.03;2051675;84;21183;-69
2021/01/05 12:08:19;;;;;;;22.58;13.13;;;;;;;0.15;89.65;99650.63;2054569;83;21166;-68
2021/01/05 12:15:26;;;;;;;29.35;15.68;;;;;;;0.10;89.65;99651.43;2118311;82;21121;-72
2021/01/05 12:18:27;;;;;;;22.20;14.05;;;;;;;0.11;89.74;99650.00;2115307;82;21556;-71
2021/01/05 12:22:34;;;;;;;18.48;12.60;;;;;;;0.08;89.68;99648.09;2118671;82;21508;-69
2021/01/05 12:26:37;;;;;;;25.15;14.68;;;;;;;0.09;89.67;99646.70;2122059;82;21142;-69
2021/01/05 12:30:44;;;;;;;19.80;11.53;;;;;;;0.09;89.71;99640.64;2117550;82;21615;-69
2021/01/05 12:34:47;;;;;;;16.15;10.65;;;;;;;0.10;89.70;99637.91;2116955;82;21149;-69
2021/01/05 12:38:54;;;;;;;17.75;11.25;;;;;;;0.09;89.66;99632.34;2116505;82;21122;-69
2021/01/05 12:43:01;;;;;;;14.93;10.08;;;;;;;0.04;89.68;99640.97;2116227;82;21609;-69
2021/01/05 12:47:08;;;;;;;19.42;13.20;;;;;;;-0.02;89.69;99637.50;2119994;82;21115;-68
2021/01/05 12:50:11;;;;;;;20.00;12.98;;;;;;;-0.02;89.80;99637.03;2116392;81;21129;-71
2021/01/05 12:54:14;;;;;;;19.12;11.18;;;;;;;-0.04;89.80;99640.21;2117673;82;21139;-70
2021/01/05 12:57:18;;;;;;;16.32;11.18;;;;;;;-0.04;89.77;99638.91;2123726;81;21554;-70
2021/01/05 13:01:21;;;;;;;12.15;9.05;;;;;;;-0.03;89.80;99633.21;2119430;82;21133;-70
2021/01/05 13:05:25;;;;;;;15.98;10.60;;;;;;;-0.03;89.80;99630.61;2117336;82;21530;-71
2021/01/05 13:09:32;;;;;;;14.00;9.70;;;;;;;-0.02;89.80;99633.11;2116926;82;21113;-73
2021/01/05 13:20:26;;;;;;;13.65;8.75;;;;;;;-0.08;89.77;99631.44;2093398;82;21097;-71
2021/01/05 13:27:20;;;;;;;14.40;9.43;;;;;;;-0.12;89.76;99627.37;2089294;83;20151;-71
2021/01/05 13:31:20;;;;;;;14.60;9.40;;;;;;;-0.13;89.81;99632.23;2087922;83;21525;-75
2021/01/05 13:35:24;;;;;;;13.27;8.67;;;;;;;-0.12;89.85;99629.50;2089818;83;21044;-72
2021/01/05 13:39:27;;;;;;;11.08;7.08;;;;;;;-0.13;89.81;99626.54;2089499;82;21162;-69
2021/01/05 13:43:22;;;;;;;10.98;7.78;;;;;;;-0.18;89.78;99629.94;2089360;83;21115;-75
2021/01/05 13:47:26;;;;;;;13.30;8.53;;;;;;;-0.23;89.78;99628.13;2094622;83;21535;-69
2021/01/05 13:51:32;;;;;;;13.75;8.08;;;;;;;-0.25;89.83;99628.73;2089820;83;21523;-69
2021/01/05 13:55:39;;;;;;;12.85;8.28;;;;;;;-0.26;89.86;99640.91;2089960;83;21628;-69
2021/01/05 13:59:43;;;;;;;15.78;9.00;;;;;;;-0.23;89.90;99634.65;2091829;83;21587;-69
2021/01/05 14:03:46;;;;;;;12.95;8.05;;;;;;;-0.24;89.89;99614.27;2093081;83;21538;-69
2021/01/05 14:07:53;;;;;;;19.45;9.68;;;;;;;-0.27;89.89;99617.58;2092279;83;21585;-67
2021/01/05 14:12:00;;;;;;;14.28;8.88;;;;;;;-0.31;89.93;99618.72;2089269;83;21204;-68
2021/01/05 14:26:49;;;;;;;16.02;9.05;;;;;;;-0.34;90.02;99621.55;2149174;81;21275;-69
2021/01/05 14:43:08;;;;;;;19.65;11.78;;;;;;;-0.35;90.04;99612.90;2114504;83;21140;-69
2021/01/05 14:47:05;;;;;;;27.32;15.20;;;;;;;-0.36;90.05;99614.33;2117852;82;21239;-70
2021/01/05 14:51:09;;;;;;;26.60;17.00;;;;;;;-0.38;90.06;99613.59;2119064;82;21242;-69
2021/01/05 14:55:13;;;;;;;23.40;15.05;;;;;;;-0.39;90.08;99621.06;2119244;83;21211;-71
2021/01/05 14:59:19;;;;;;;19.37;12.98;;;;;;;-0.39;90.11;99620.59;2120366;83;21147;-69
2021/01/05 15:03:29;;;;;;;29.70;17.67;;;;;;;-0.38;90.07;99619.64;2116801;83;21140;-69
2021/01/05 15:07:36;;;;;;;23.65;14.40;;;;;;;-0.37;90.05;99621.77;2142345;81;21575;-69
2021/01/05 15:11:43;;;;;;;19.77;12.50;;;;;;;-0.37;90.07;99622.59;2146855;81;21069;-69
2021/01/05 15:15:46;;;;;;;21.75;12.58;;;;;;;-0.37;90.09;99627.81;2145777;81;21486;-69
2021/01/05 15:43:07;;;;;;;28.95;16.82;;;;;;;-0.34;90.08;99622.85;2144547;81;21239;-69
2021/01/05 15:47:04;;;;;;;24.00;12.98;;;;;;;-0.34;90.06;99627.63;2146927;81;21122;-69
2021/01/05 15:51:08;;;;;;;22.93;12.03;;;;;;;-0.37;89.99;99623.90;2141073;81;21049;-69
2021/01/05 15:55:15;;;;;;;17.62;10.78;;;;;;;-0.39;90.03;99624.50;2142159;81;21589;-68
2021/01/05 15:59:18;;;;;;;18.05;11.25;;;;;;;-0.40;90.05;99620.20;2144454;81;21144;-71
2021/01/05 16:03:28;;;;;;;17.30;10.58;;;;;;;-0.41;90.03;99607.30;2144498;81;21097;-73
2021/01/05 16:07:30;;;;;;;17.48;11.35;;;;;;;-0.40;90.06;99611.08;2144091;81;21172;-71
2021/01/05 16:11:37;;;;;;;19.15;11.48;;;;;;;-0.39;90.06;99614.55;2142436;81;21112;-67
2021/01/05 16:15:41;;;;;;;19.07;12.50;;;;;;;-0.37;90.06;99614.77;2139614;81;21195;-68
2021/01/05 16:19:44;;;;;;;22.02;13.18;;;;;;;-0.37;90.07;99610.03;2141908;81;21525;-71
2021/01/05 16:26:37;;;;;;;18.23;12.75;;;;;;;-0.37;90.05;99617.86;2140543;81;21108;-74
2021/01/05 16:30:39;;;;;;;20.32;12.43;;;;;;;-0.37;90.05;99619.16;2143754;81;21176;-68
2021/01/05 16:34:46;;;;;;;19.00;12.82;;;;;;;-0.37;89.99;99613.95;2144646;81;21157;-72
2021/01/05 16:38:49;;;;;;;23.22;13.13;;;;;;;-0.35;90.00;99612.07;2144531;81;21132;-70
2021/01/05 16:42:59;;;;;;;23.22;14.20;;;;;;;-0.35;90.01;99597.73;2140891;81;21132;-78
2021/01/05 16:54:02;;;;;;;24.67;14.75;;;;;;;-0.42;89.98;99586.06;2143015;81;21121;-79
2021/01/05 16:57:04;;;;;;;24.65;14.20;;;;;;;-0.43;90.00;99591.75;2115708;81;21907;-73
2021/01/05 17:00:16;;;;;;;25.43;13.83;;;;;;;-0.42;90.02;99588.23;2109613;81;21529;-75
2021/01/05 17:03:18;;;;;;;25.97;14.50;;;;;;;-0.42;90.03;99595.19;2137155;81;21182;-71
2021/01/05 17:06:20;;;;;;;25.40;15.90;;;;;;;-0.38;90.09;99601.87;2144455;81;21096;-80
2021/01/05 17:09:22;;;;;;;27.02;15.78;;;;;;;-0.37;90.05;99597.83;2141209;81;21191;-70
2021/01/05 17:12:25;;;;;;;24.75;15.58;;;;;;;-0.40;89.94;99595.45;2144579;81;21220;-83
2021/01/05 17:15:30;;;;;;;25.77;14.75;;;;;;;-0.42;89.94;99603.87;2140331;81;21235;-72
2021/01/05 17:18:32;;;;;;;26.55;16.62;;;;;;;-0.42;89.93;99604.31;2140195;81;21111;-73
2021/01/05 17:21:33;;;;;;;27.45;16.95;;;;;;;-0.42;89.94;99606.47;2145366;81;21504;-71
2021/01/05 17:24:37;;;;;;;27.75;16.35;;;;;;;-0.42;89.97;99601.70;2133568;81;21550;-77
2021/01/05 17:27:39;;;;;;;26.73;16.85;;;;;;;-0.41;89.96;99594.27;2095035;82;21643;-74
2021/01/05 17:30:41;;;;;;;27.70;16.30;;;;;;;-0.38;89.96;99596.66;2129048;82;21176;-71
2021/01/05 17:33:43;;;;;;;26.73;16.10;;;;;;;-0.36;89.98;99592.17;2128389;82;21504;-71
2021/01/05 17:36:48;;;;;;;27.30;17.37;;;;;;;-0.37;89.91;99607.43;2132023;82;21144;-72
2021/01/05 17:39:48;;;;;;;27.22;16.60;;;;;;;-0.37;89.91;99610.03;2126095;82;21154;-79
2021/01/05 17:42:50;;;;;;;34.53;18.95;;;;;;;-0.39;89.91;99602.34;2125740;82;21156;-77
2021/01/05 17:45:56;;;;;;;29.65;17.40;;;;;;;-0.41;89.92;99596.39;2132804;82;21178;-75
2021/01/05 17:48:56;;;;;;;29.80;16.30;;;;;;;-0.40;89.96;99601.13;2104553;82;21165;-70
2021/01/05 17:51:58;;;;;;;29.80;18.27;;;;;;;-0.42;89.92;99606.47;2132425;82;21161;-72
2021/01/05 17:55:00;;;;;;;27.62;15.63;;;;;;;-0.40;89.93;99608.48;2131222;82;21177;-77
2021/01/05 17:58:02;;;;;;;23.90;15.43;;;;;;;-0.38;89.93;99611.81;2135101;82;21113;-81
2021/01/05 18:01:03;;;;;;;25.97;16.95;;;;;;;-0.41;89.90;99606.00;2128971;82;21128;-72
2021/01/05 18:04:05;;;;;;;29.15;18.85;;;;;;;-0.40;89.86;99614.17;2106840;82;21297;-72
2021/01/05 18:07:09;;;;;;;33.45;20.15;;;;;;;-0.40;89.87;99618.08;2072063;81;21176;-72
2021/01/05 18:10:17;;;;;;;35.33;19.92;;;;;;;-0.40;89.91;99621.52;2125004;82;21201;-74
2021/01/05 18:13:18;;;;;;;32.00;19.27;;;;;;;-0.41;89.86;99620.34;2126611;82;21171;-80
2021/01/05 18:16:27;;;;;;;39.15;21.05;;;;;;;-0.43;89.88;99623.52;2129388;82;21922;-73
2021/01/05 18:19:28;;;;;;;38.38;22.22;;;;;;;-0.44;89.92;99629.20;2127984;82;21195;-75
2021/01/05 18:22:35;;;;;;;40.00;22.30;;;;;;;-0.43;89.94;99624.34;2124963;82;22238;-72
2021/01/05 18:25:36;;;;;;;34.98;20.52;;;;;;;-0.42;89.97;99626.02;2120872;82;21576;-88
2021/01/05 18:28:38;;;;;;;30.37;20.32;;;;;;;-0.38;89.96;99622.72;2115810;82;21600;-72
2021/01/05 18:31:39;;;;;;;38.13;22.15;;;;;;;-0.37;89.93;99630.89;2119270;82;21137;-73
2021/01/05 18:34:43;;;;;;;36.10;22.05;;;;;;;-0.37;89.90;99625.20;2117412;82;22519;-72
2021/01/05 18:37:50;;;;;;;34.48;22.52;;;;;;;-0.35;89.93;99626.41;2125856;82;21144;-69
2021/01/05 18:40:52;;;;;;;31.23;20.57;;;;;;;-0.35;89.91;99630.32;2121658;82;21207;-76